createdAt,value
2023-05-05T00:00:22.412Z,7.82
2023-05-05T00:02:49.128Z,4.95
2023-05-05T00:05:15.927Z,4.82
2023-05-05T00:07:42.711Z,3.60
2023-05-05T00:10:11.104Z,4.70
2023-05-05T00:12:37.920Z,5.30
2023-05-05T00:15:05.552Z,5.72
2023-05-05T00:17:32.244Z,7.25
2023-05-05T00:19:58.902Z,6.85
2023-05-05T00:22:25.690Z,4.78
2023-05-05T00:24:52.360Z,5.07
2023-05-05T00:27:20.392Z,4.63
2023-05-05T00:29:47.082Z,4.65
2023-05-05T00:32:13.773Z,4.32
2023-05-05T00:34:40.410Z,5.47
2023-05-05T00:37:07.108Z,4.00
2023-05-05T00:39:33.796Z,4.70
2023-05-05T00:42:00.429Z,6.85
2023-05-05T00:44:35.850Z,6.45
2023-05-05T00:47:02.554Z,7.70
2023-05-05T00:49:29.253Z,6.35
2023-05-05T00:51:55.990Z,4.10
2023-05-05T00:54:22.708Z,7.00
2023-05-05T00:56:49.882Z,7.50
2023-05-05T00:59:16.627Z,6.28
2023-05-05T01:01:45.095Z,5.43
2023-05-05T01:04:11.773Z,3.88
2023-05-05T01:06:42.781Z,3.90
2023-05-05T01:09:19.931Z,4.90
2023-05-05T01:11:49.417Z,4.18
2023-05-05T01:14:17.235Z,4.95
2023-05-05T01:16:52.291Z,5.75
2023-05-05T01:19:31.095Z,8.38
2023-05-05T01:22:00.464Z,4.43
2023-05-05T01:24:42.661Z,5.68
2023-05-05T01:27:26.387Z,6.60
2023-05-05T01:30:28.616Z,3.95
2023-05-05T01:32:58.390Z,5.78
2023-05-05T01:35:28.422Z,5.13
2023-05-05T01:37:57.789Z,4.35
2023-05-05T01:40:26.293Z,4.72
2023-05-05T01:42:52.966Z,9.65
2023-05-05T01:45:20.619Z,4.68
2023-05-05T01:47:47.372Z,5.40
2023-05-05T01:50:15.466Z,9.30
2023-05-05T01:52:42.162Z,4.65
2023-05-05T01:55:09.144Z,3.22
2023-05-05T01:57:35.900Z,5.10
2023-05-05T02:00:02.600Z,6.57
2023-05-05T02:02:29.328Z,4.97
2023-05-05T02:04:56.086Z,5.22
2023-05-05T02:07:24.176Z,4.50
2023-05-05T02:09:51.195Z,5.78
2023-05-05T02:12:17.973Z,5.38
2023-05-05T02:14:44.653Z,4.32
2023-05-05T02:17:11.429Z,4.88
2023-05-05T02:19:38.997Z,7.78
2023-05-05T02:22:05.818Z,5.63
2023-05-05T02:24:33.948Z,6.50
2023-05-05T02:27:00.650Z,3.67
2023-05-05T02:29:29.190Z,5.45
2023-05-05T02:31:58.103Z,5.30
2023-05-05T02:34:26.189Z,6.07
2023-05-05T02:36:53.679Z,5.38
2023-05-05T02:39:21.922Z,3.83
2023-05-05T02:41:49.944Z,6.00
2023-05-05T02:44:16.681Z,4.50
2023-05-05T02:46:43.456Z,4.97
2023-05-05T02:49:10.204Z,5.72
2023-05-05T02:51:36.907Z,6.55
2023-05-05T02:54:04.014Z,5.57
2023-05-05T02:56:34.432Z,5.65
2023-05-05T02:59:08.798Z,5.40
2023-05-05T03:01:39.639Z,4.97
2023-05-05T03:04:07.450Z,5.25
2023-05-05T03:06:36.864Z,4.90
2023-05-05T03:09:09.689Z,4.07
2023-05-05T03:11:38.460Z,4.47
2023-05-05T03:14:08.418Z,4.97
2023-05-05T03:16:35.593Z,5.10
2023-05-05T03:19:03.001Z,4.18
2023-05-05T03:21:29.798Z,6.20
2023-05-05T03:23:57.386Z,5.75
2023-05-05T03:26:24.141Z,4.70
2023-05-05T03:28:50.835Z,6.18
2023-05-05T03:31:18.956Z,6.32
2023-05-05T03:33:45.724Z,4.43
2023-05-05T03:36:12.396Z,5.63
2023-05-05T03:38:39.108Z,5.68
2023-05-05T03:41:05.910Z,7.93
2023-05-05T03:43:32.588Z,8.00
2023-05-05T03:45:59.299Z,5.47
2023-05-05T03:48:27.549Z,6.80
2023-05-05T03:50:54.250Z,6.13
2023-05-05T03:53:20.932Z,5.50
2023-05-05T03:55:47.856Z,6.78
2023-05-05T03:58:14.535Z,7.47
2023-05-05T04:00:41.191Z,6.13
2023-05-05T04:03:08.032Z,5.90
2023-05-05T04:05:36.292Z,5.07
2023-05-05T04:08:03.098Z,6.38
2023-05-05T04:10:29.833Z,6.45
2023-05-05T04:12:56.692Z,7.88
2023-05-05T04:15:23.655Z,7.95
2023-05-05T04:17:50.439Z,7.65
2023-05-05T04:20:17.371Z,10.32
2023-05-05T04:22:45.410Z,8.60
2023-05-05T04:25:12.203Z,10.30
2023-05-05T04:27:38.893Z,6.15
2023-05-05T04:30:06.740Z,6.85
2023-05-05T04:32:33.629Z,6.05
2023-05-05T04:35:00.373Z,5.97
2023-05-05T04:37:27.106Z,5.95
2023-05-05T04:39:55.192Z,7.47
2023-05-05T04:42:21.853Z,9.82
2023-05-05T04:44:48.521Z,5.15
2023-05-05T04:47:15.332Z,5.25
2023-05-05T04:49:42.007Z,8.30
2023-05-05T04:52:08.675Z,6.22
2023-05-05T04:54:35.740Z,9.43
2023-05-05T04:57:03.876Z,5.10
2023-05-05T04:59:30.559Z,6.80
2023-05-05T05:01:57.433Z,8.57
2023-05-05T05:04:24.147Z,6.78
2023-05-05T05:06:50.893Z,7.82
2023-05-05T05:09:17.881Z,5.95
2023-05-05T05:11:44.552Z,7.70
2023-05-05T05:14:12.608Z,5.65
2023-05-05T05:16:39.689Z,5.70
2023-05-05T05:19:06.441Z,5.35
2023-05-05T05:21:33.159Z,6.68
2023-05-05T05:23:59.862Z,6.82
2023-05-05T05:26:26.552Z,4.57
2023-05-05T05:28:53.248Z,5.05
2023-05-05T05:31:21.666Z,5.25
2023-05-05T05:33:48.347Z,4.80
2023-05-05T05:36:15.030Z,7.63
2023-05-05T05:38:41.763Z,10.85
2023-05-05T05:41:08.426Z,7.13
2023-05-05T05:43:35.075Z,4.90
2023-05-05T05:46:01.893Z,8.05
2023-05-05T05:48:30.064Z,5.47
2023-05-05T05:50:56.736Z,4.07
2023-05-05T05:53:23.471Z,3.85
2023-05-05T05:55:50.164Z,5.32
2023-05-05T05:58:16.806Z,9.45
2023-05-05T06:00:43.516Z,3.78
2023-05-05T06:03:10.251Z,8.50
2023-05-05T06:05:38.408Z,5.15
2023-05-05T06:08:05.233Z,5.55
2023-05-05T06:10:32.154Z,8.05
2023-05-05T06:12:59.072Z,3.60
2023-05-05T06:15:25.963Z,4.95
2023-05-05T06:17:52.699Z,6.20
2023-05-05T06:20:19.425Z,5.03
2023-05-05T06:22:47.722Z,6.60
2023-05-05T06:25:14.595Z,4.65
2023-05-05T06:27:41.322Z,6.43
2023-05-05T06:30:09.086Z,6.28
2023-05-05T06:32:36.029Z,5.57
2023-05-05T06:35:02.803Z,5.45
2023-05-05T06:37:29.567Z,8.30
2023-05-05T06:39:57.633Z,5.22
2023-05-05T06:42:24.298Z,4.88
2023-05-05T06:44:51.205Z,5.07
2023-05-05T06:47:18.022Z,4.32
2023-05-05T06:49:44.708Z,5.47
2023-05-05T06:52:11.433Z,5.28
2023-05-05T06:54:38.243Z,4.47
2023-05-05T06:57:06.983Z,3.97
2023-05-05T06:59:33.776Z,5.32
2023-05-05T07:02:00.463Z,5.22
2023-05-05T07:04:27.139Z,4.05
2023-05-05T07:06:53.858Z,4.68
2023-05-05T07:09:20.554Z,4.63
2023-05-05T07:11:47.351Z,3.45
2023-05-05T07:14:15.474Z,5.35
2023-05-05T07:16:42.207Z,5.68
2023-05-05T07:19:09.003Z,6.53
2023-05-05T07:21:35.754Z,5.72
2023-05-05T07:24:02.616Z,5.07
2023-05-05T07:26:29.283Z,5.25
2023-05-05T07:28:56.061Z,5.97
2023-05-05T07:31:24.140Z,3.95
2023-05-05T07:33:50.888Z,5.38
2023-05-05T07:36:17.647Z,5.28
2023-05-05T07:38:44.366Z,3.80
2023-05-05T07:41:11.026Z,3.17
2023-05-05T07:43:39.340Z,3.72
2023-05-05T07:46:06.450Z,3.30
2023-05-05T07:48:34.552Z,5.35
2023-05-05T07:51:01.256Z,8.80
2023-05-05T07:53:27.946Z,6.45
2023-05-05T07:55:54.640Z,3.60
2023-05-05T07:58:21.419Z,3.65
2023-05-05T08:00:48.141Z,4.25
2023-05-05T08:03:14.848Z,4.10
2023-05-05T08:05:42.987Z,4.93
2023-05-05T08:08:09.636Z,3.92
2023-05-05T08:10:36.303Z,5.53
2023-05-05T08:13:03.095Z,5.93
2023-05-05T08:15:29.805Z,4.65
2023-05-05T08:17:56.527Z,4.45
2023-05-05T08:20:27.581Z,3.10
2023-05-05T08:22:55.618Z,5.07
2023-05-05T08:25:22.357Z,4.40
2023-05-05T08:27:49.214Z,4.75
2023-05-05T08:30:16.054Z,3.33
2023-05-05T08:32:42.788Z,4.78
2023-05-05T08:35:12.517Z,4.45
2023-05-05T08:37:39.507Z,5.78
2023-05-05T08:40:09.914Z,3.55
2023-05-05T08:42:38.772Z,5.38
2023-05-05T08:45:07.373Z,4.60
2023-05-05T08:47:34.616Z,3.42
2023-05-05T08:50:01.333Z,5.90
2023-05-05T08:52:29.467Z,4.32
2023-05-05T08:54:57.686Z,3.95
2023-05-05T08:57:29.195Z,4.40
2023-05-05T08:59:56.033Z,4.60
2023-05-05T09:02:24.151Z,3.22
2023-05-05T09:04:51.746Z,3.17
2023-05-05T09:07:18.572Z,4.43
2023-05-05T09:09:45.312Z,4.85
2023-05-05T09:12:12.025Z,2.85
2023-05-05T09:14:40.104Z,3.63
2023-05-05T09:17:06.956Z,4.57
2023-05-05T09:19:33.761Z,3.13
2023-05-05T09:22:00.447Z,4.97
2023-05-05T09:24:27.202Z,3.60
2023-05-05T09:26:53.958Z,3.80
2023-05-05T09:29:20.683Z,3.88
2023-05-05T09:32:01.196Z,3.45
2023-05-05T09:34:27.888Z,3.20
2023-05-05T09:36:54.613Z,4.25
2023-05-05T09:39:21.297Z,3.50
2023-05-05T09:41:50.748Z,2.95
2023-05-05T09:44:17.507Z,3.80
2023-05-05T09:46:49.830Z,4.35
2023-05-05T09:49:18.741Z,4.38
2023-05-05T09:51:45.530Z,2.35
2023-05-05T09:54:22.405Z,4.15
2023-05-05T09:56:49.080Z,2.50
2023-05-05T09:59:15.782Z,6.88
2023-05-05T10:01:42.577Z,2.53
2023-05-05T10:04:23.638Z,2.30
2023-05-05T10:06:50.370Z,2.92
2023-05-05T10:09:17.057Z,2.20
2023-05-05T10:11:45.311Z,3.00
2023-05-05T10:14:13.023Z,2.63
2023-05-05T10:16:39.965Z,2.40
2023-05-05T10:19:06.696Z,2.45
2023-05-05T10:21:35.851Z,2.40
2023-05-05T10:24:06.907Z,2.13
2023-05-05T10:26:34.241Z,2.22
2023-05-05T10:29:00.979Z,3.03
2023-05-05T10:31:29.966Z,2.97
2023-05-05T10:34:00.325Z,1.70
2023-05-05T10:36:27.204Z,1.98
2023-05-05T10:38:56.495Z,2.78
2023-05-05T10:41:23.174Z,2.45
2023-05-05T10:43:50.026Z,2.95
2023-05-05T10:46:16.781Z,2.17
2023-05-05T10:48:46.925Z,4.55
2023-05-05T10:51:30.958Z,1.80
2023-05-05T10:54:07.718Z,1.50
2023-05-05T10:56:35.065Z,3.75
2023-05-05T10:59:01.746Z,1.30
2023-05-05T11:01:32.111Z,2.70
2023-05-05T11:04:18.451Z,2.83
2023-05-05T11:07:21.224Z,1.80
2023-05-05T11:09:56.521Z,1.50
2023-05-05T11:12:23.306Z,4.13
2023-05-05T11:15:23.072Z,1.50
2023-05-05T11:17:49.938Z,1.48
2023-05-05T11:20:16.690Z,1.70
2023-05-05T11:23:22.301Z,1.48
2023-05-05T11:25:50.542Z,3.25
2023-05-05T11:28:17.777Z,2.53
2023-05-05T11:31:18.328Z,2.63
2023-05-05T11:33:45.164Z,1.80
2023-05-05T11:36:12.338Z,1.60
2023-05-05T11:38:44.241Z,2.00
2023-05-05T11:41:13.340Z,1.95
2023-05-05T11:43:40.237Z,2.15
2023-05-05T11:46:10.239Z,2.30
2023-05-05T11:48:44.158Z,2.28
2023-05-05T11:51:11.652Z,7.57
2023-05-05T11:53:41.345Z,2.67
2023-05-05T11:56:08.654Z,2.22
2023-05-05T11:58:37.425Z,3.95
2023-05-05T12:01:06.956Z,11.57
2023-05-05T12:03:36.694Z,2.30
2023-05-05T12:06:03.844Z,2.72
2023-05-05T12:08:35.723Z,2.30
2023-05-05T12:11:02.875Z,2.67
2023-05-05T12:13:29.593Z,2.45
2023-05-05T12:16:07.675Z,3.75
2023-05-05T12:18:34.493Z,10.65
2023-05-05T12:21:01.308Z,3.25
2023-05-05T12:23:27.997Z,6.72
2023-05-05T12:25:54.754Z,3.75
2023-05-05T12:28:21.466Z,3.00
2023-05-05T12:30:57.282Z,3.33
2023-05-05T12:33:24.017Z,4.88
2023-05-05T12:35:50.875Z,3.40
2023-05-05T12:38:17.631Z,20.73
2023-05-05T12:40:45.545Z,3.67
2023-05-05T12:43:27.555Z,3.80
2023-05-05T12:46:09.693Z,10.20
2023-05-05T12:48:36.950Z,3.95
2023-05-05T12:51:17.542Z,4.20
2023-05-05T12:53:44.411Z,4.57
2023-05-05T12:56:33.528Z,6.18
2023-05-05T12:59:00.885Z,3.35
2023-05-05T13:01:29.102Z,2.78
2023-05-05T13:04:08.977Z,5.47
2023-05-05T13:06:35.661Z,3.25
2023-05-05T13:09:02.384Z,4.18
2023-05-05T13:11:29.163Z,2.88
2023-05-05T13:13:55.797Z,2.28
2023-05-05T13:16:22.626Z,2.40
2023-05-05T13:18:50.937Z,2.97
2023-05-05T13:21:17.626Z,2.55
2023-05-05T13:23:44.467Z,3.72
2023-05-05T13:26:11.340Z,3.15
2023-05-05T13:28:38.042Z,2.63
2023-05-05T13:31:04.842Z,2.40
2023-05-05T13:33:33.116Z,5.82
2023-05-05T13:36:01.341Z,3.28
2023-05-05T13:38:27.990Z,2.90
2023-05-05T13:40:54.714Z,2.42
2023-05-05T13:43:21.463Z,2.75
2023-05-05T13:45:48.155Z,2.80
2023-05-05T13:48:15.001Z,7.15
2023-05-05T13:50:41.764Z,2.67
2023-05-05T13:53:09.882Z,3.35
2023-05-05T13:55:36.668Z,2.65
2023-05-05T13:58:04.667Z,3.25
2023-05-05T14:00:31.481Z,2.20
2023-05-05T14:02:58.672Z,2.00
2023-05-05T14:05:25.382Z,4.18
2023-05-05T14:07:52.062Z,2.08
2023-05-05T14:10:20.136Z,2.45
2023-05-05T14:12:46.821Z,2.67
2023-05-05T14:15:13.529Z,1.90
2023-05-05T14:17:40.257Z,1.63
2023-05-05T14:20:07.968Z,1.80
2023-05-05T14:22:34.635Z,1.73
2023-05-05T14:25:01.432Z,1.92
2023-05-05T14:27:29.460Z,3.10
2023-05-05T14:29:56.140Z,1.70
2023-05-05T14:32:22.939Z,1.77
2023-05-05T14:34:50.546Z,1.70
2023-05-05T14:37:17.364Z,2.05
2023-05-05T14:39:44.073Z,2.75
2023-05-05T14:42:10.747Z,2.05
2023-05-05T14:44:38.786Z,3.65
2023-05-05T14:47:05.542Z,2.78
2023-05-05T14:49:32.318Z,1.60
2023-05-05T14:51:59.034Z,1.52
2023-05-05T14:54:28.886Z,2.42
2023-05-05T14:56:55.875Z,1.95
2023-05-05T14:59:22.675Z,2.35
2023-05-05T15:01:53.656Z,1.83
2023-05-05T15:04:20.390Z,2.10
2023-05-05T15:06:47.072Z,2.10
2023-05-05T15:09:13.953Z,1.70
2023-05-05T15:11:40.612Z,1.80
2023-05-05T15:14:07.470Z,1.60
2023-05-05T15:16:35.327Z,1.60
2023-05-05T15:19:03.765Z,4.15
2023-05-05T15:21:30.544Z,2.05
2023-05-05T15:23:57.233Z,3.35
2023-05-05T15:26:23.928Z,1.88
2023-05-05T15:28:50.573Z,3.63
2023-05-05T15:31:17.337Z,1.90
2023-05-05T15:33:44.079Z,1.80
2023-05-05T15:36:12.666Z,1.70
2023-05-05T15:38:41.127Z,2.38
2023-05-05T15:41:07.787Z,2.97
2023-05-05T15:43:34.463Z,1.80
2023-05-05T15:46:01.183Z,1.77
2023-05-05T15:48:28.293Z,2.20
2023-05-05T15:50:54.980Z,2.10
2023-05-05T15:53:23.055Z,1.55
2023-05-05T15:55:49.754Z,1.92
2023-05-05T15:58:16.423Z,2.08
2023-05-05T16:00:43.112Z,2.63
2023-05-05T16:03:09.824Z,1.70
2023-05-05T16:05:36.488Z,2.25
2023-05-05T16:08:03.353Z,3.03
2023-05-05T16:10:31.386Z,1.80
2023-05-05T16:12:58.102Z,2.63
2023-05-05T16:15:24.962Z,2.00
2023-05-05T16:17:51.682Z,2.13
2023-05-05T16:20:18.453Z,3.25
2023-05-05T16:22:45.154Z,2.10
2023-05-05T16:25:11.877Z,1.88
2023-05-05T16:27:39.997Z,3.70
2023-05-05T16:30:08.228Z,2.47
2023-05-05T16:32:34.906Z,2.95
2023-05-05T16:35:01.596Z,3.28
2023-05-05T16:37:28.393Z,2.17
2023-05-05T16:39:55.171Z,5.18
2023-05-05T16:42:21.873Z,3.10
2023-05-05T16:44:49.982Z,2.70
2023-05-05T16:47:16.648Z,4.38
2023-05-05T16:49:43.495Z,3.30
2023-05-05T16:52:10.249Z,6.18
2023-05-05T16:54:36.923Z,2.80
2023-05-05T16:57:03.758Z,3.60
2023-05-05T16:59:31.603Z,2.88
2023-05-05T17:01:59.885Z,6.13
2023-05-05T17:04:26.636Z,3.97
2023-05-05T17:06:53.323Z,6.53
2023-05-05T17:09:20.006Z,3.70
2023-05-05T17:11:46.708Z,3.92
2023-05-05T17:14:13.495Z,2.65
2023-05-05T17:16:40.167Z,3.10
2023-05-05T17:19:08.290Z,7.05
2023-05-05T17:21:35.120Z,2.63
2023-05-05T17:24:01.782Z,3.80
2023-05-05T17:26:28.473Z,7.53
2023-05-05T17:28:55.187Z,5.60
2023-05-05T17:31:21.918Z,5.60
2023-05-05T17:33:48.725Z,3.10
2023-05-05T17:36:16.847Z,4.35
2023-05-05T17:38:43.502Z,5.55
2023-05-05T17:41:10.138Z,5.45
2023-05-05T17:43:36.810Z,3.33
2023-05-05T17:46:03.512Z,3.95
2023-05-05T17:48:30.191Z,3.97
2023-05-05T17:50:56.904Z,6.40
2023-05-05T17:53:25.062Z,3.88
2023-05-05T17:55:51.751Z,6.03
2023-05-05T17:58:18.470Z,5.60
2023-05-05T18:00:45.177Z,8.88
2023-05-05T18:03:11.999Z,7.97
2023-05-05T18:05:38.806Z,5.72
2023-05-05T18:08:05.791Z,7.43
2023-05-05T18:10:33.907Z,8.65
2023-05-05T18:13:00.602Z,38.33
2023-05-05T18:15:27.529Z,47.67
2023-05-05T18:17:54.222Z,33.33
2023-05-05T18:20:20.930Z,21.63
2023-05-05T18:22:48.376Z,8.57
2023-05-05T18:25:15.022Z,9.10
2023-05-05T18:27:43.264Z,11.35
2023-05-05T18:30:10.524Z,56.00
2023-05-05T18:32:37.291Z,40.90
2023-05-05T18:35:04.708Z,27.70
2023-05-05T18:37:31.419Z,18.88
2023-05-05T18:39:58.081Z,11.43
2023-05-05T18:42:24.830Z,10.40
2023-05-05T18:44:52.895Z,10.35
2023-05-05T18:47:19.536Z,9.85
2023-05-05T18:49:46.294Z,7.90
2023-05-05T18:52:12.950Z,4.75
2023-05-05T18:54:39.636Z,5.38
2023-05-05T18:57:06.377Z,8.85
2023-05-05T18:59:33.033Z,5.60
2023-05-05T19:02:01.111Z,6.20
2023-05-05T19:04:31.822Z,10.52
2023-05-05T19:06:58.681Z,9.20
2023-05-05T19:09:25.412Z,9.60
2023-05-05T19:11:52.137Z,8.18
2023-05-05T19:14:18.884Z,7.35
2023-05-05T19:16:45.673Z,8.27
2023-05-05T19:19:13.974Z,9.00
2023-05-05T19:21:40.826Z,13.88
2023-05-05T19:24:08.184Z,9.52
2023-05-05T19:26:34.880Z,7.93
2023-05-05T19:29:01.544Z,8.88
2023-05-05T19:31:28.291Z,8.77
2023-05-05T19:33:59.154Z,10.18
2023-05-05T19:36:27.244Z,11.80
2023-05-05T19:38:54.165Z,11.93
2023-05-05T19:41:20.932Z,13.95
2023-05-05T19:43:47.630Z,11.68
2023-05-05T19:46:14.505Z,18.60
2023-05-05T19:48:41.386Z,14.07
2023-05-05T19:51:08.079Z,12.18
2023-05-05T19:53:36.142Z,16.77
2023-05-05T19:56:02.925Z,19.70
2023-05-05T19:58:29.619Z,17.40
2023-05-05T20:00:56.279Z,14.90
2023-05-05T20:03:23.084Z,16.20
2023-05-05T20:05:49.826Z,17.60
2023-05-05T20:08:16.496Z,14.68
2023-05-05T20:10:45.095Z,19.65
2023-05-05T20:13:11.808Z,19.35
2023-05-05T20:15:38.530Z,17.15
2023-05-05T20:18:05.451Z,17.08
2023-05-05T20:20:32.178Z,18.95
2023-05-05T20:22:58.851Z,22.10
2023-05-05T20:25:25.652Z,23.38
2023-05-05T20:27:53.741Z,22.83
2023-05-05T20:30:20.464Z,22.10
2023-05-05T20:32:47.244Z,11.50
2023-05-05T20:35:13.959Z,12.48
2023-05-05T20:37:40.797Z,11.05
2023-05-05T20:40:09.160Z,11.10
2023-05-05T20:42:36.075Z,13.85
2023-05-05T20:45:05.095Z,14.02
2023-05-05T20:47:33.220Z,14.23
2023-05-05T20:49:59.898Z,14.20
2023-05-05T20:52:26.548Z,11.88
2023-05-05T20:54:53.261Z,17.40
2023-05-05T20:57:19.983Z,15.05
2023-05-05T20:59:46.744Z,15.38
2023-05-05T21:02:15.049Z,11.88
2023-05-05T21:04:41.902Z,15.07
2023-05-05T21:07:08.692Z,17.30
2023-05-05T21:09:35.473Z,14.88
2023-05-05T21:12:02.164Z,17.15
2023-05-05T21:14:28.944Z,18.00
2023-05-05T21:16:55.727Z,17.13
2023-05-05T21:19:23.940Z,18.00
2023-05-05T21:21:50.627Z,17.85
2023-05-05T21:24:17.354Z,20.23
2023-05-05T21:26:44.049Z,17.13
2023-05-05T21:29:10.962Z,21.80
2023-05-05T21:31:37.740Z,13.27
2023-05-05T21:34:04.499Z,10.63
2023-05-05T21:36:32.625Z,12.18
2023-05-05T21:39:00.505Z,11.93
2023-05-05T21:41:27.319Z,11.52
2023-05-05T21:43:54.037Z,13.38
2023-05-05T21:46:20.942Z,19.55
2023-05-05T21:48:47.741Z,19.40
2023-05-05T21:51:14.505Z,12.18
2023-05-05T21:53:42.622Z,15.73
2023-05-05T21:56:09.387Z,15.50
2023-05-05T21:58:36.122Z,15.05
2023-05-05T22:01:02.853Z,14.95
2023-05-05T22:03:29.623Z,15.88
2023-05-05T22:05:56.577Z,18.50
2023-05-05T22:08:23.344Z,20.48
2023-05-05T22:10:51.763Z,16.65
2023-05-05T22:13:18.615Z,14.43
2023-05-05T22:15:47.485Z,13.57
2023-05-05T22:18:14.685Z,17.00
2023-05-05T22:20:41.400Z,15.13
2023-05-05T22:23:08.114Z,16.58
2023-05-05T22:25:35.124Z,13.70
2023-05-05T22:28:03.434Z,15.70
2023-05-05T22:30:30.160Z,16.42
2023-05-05T22:32:56.859Z,14.80
2023-05-05T22:35:23.551Z,13.63
2023-05-05T22:37:50.342Z,19.50
2023-05-05T22:40:17.270Z,15.65
2023-05-05T22:42:43.956Z,15.93
2023-05-05T22:45:12.777Z,17.25
2023-05-05T22:47:39.482Z,16.35
2023-05-05T22:50:07.465Z,16.95
2023-05-05T22:52:34.401Z,15.77
2023-05-05T22:55:01.120Z,18.88
2023-05-05T22:57:27.829Z,16.75
2023-05-05T22:59:54.585Z,17.10
2023-05-05T23:02:22.781Z,19.63
2023-05-05T23:04:49.647Z,25.33
2023-05-05T23:07:16.444Z,23.02
2023-05-05T23:09:43.104Z,17.00
2023-05-05T23:12:09.765Z,15.05
2023-05-05T23:14:36.514Z,16.15
2023-05-05T23:17:03.253Z,18.42
2023-05-05T23:19:31.479Z,17.00
2023-05-05T23:21:58.393Z,18.55
2023-05-05T23:24:25.136Z,19.33
2023-05-05T23:26:51.832Z,20.98
2023-05-05T23:29:18.618Z,19.17
2023-05-05T23:31:45.375Z,21.48
2023-05-05T23:34:12.188Z,19.33
2023-05-05T23:36:40.237Z,18.50
2023-05-05T23:39:06.906Z,14.55
2023-05-05T23:41:33.591Z,14.40
2023-05-05T23:44:00.271Z,18.02
2023-05-05T23:46:27.020Z,15.63
2023-05-05T23:48:53.729Z,19.65
2023-05-05T23:51:20.429Z,16.25
2023-05-05T23:53:48.487Z,17.27
2023-05-05T23:56:15.179Z,15.80
2023-05-05T23:58:41.995Z,17.02
